sensor_id;sensor_type;location;lat;lon;timestamp;temperature;humidity
69162;DHT22;56269;51.738;21.652;2022-07-23T00:00:39;18.00;98.35
69162;DHT22;56269;51.738;21.652;2022-07-23T00:03:06;18.00;98.31
69162;DHT22;56269;51.738;21.652;2022-07-23T00:05:32;18.00;97.92
69162;DHT22;56269;51.738;21.652;2022-07-23T00:07:58;17.91;97.81
69162;DHT22;56269;51.738;21.652;2022-07-23T00:10:24;17.90;98.14
69162;DHT22;56269;51.738;21.652;2022-07-23T00:12:50;17.80;98.25
69162;DHT22;56269;51.738;21.652;2022-07-23T00:15:16;17.79;98.48
69162;DHT22;56269;51.738;21.652;2022-07-23T00:17:42;17.77;98.27
69162;DHT22;56269;51.738;21.652;2022-07-23T00:20:08;17.77;98.51
69162;DHT22;56269;51.738;21.652;2022-07-23T00:22:34;17.75;98.42
69162;DHT22;56269;51.738;21.652;2022-07-23T00:25:00;17.73;98.33
69162;DHT22;56269;51.738;21.652;2022-07-23T00:27:26;17.70;98.50
69162;DHT22;56269;51.738;21.652;2022-07-23T00:29:52;17.66;98.64
69162;DHT22;56269;51.738;21.652;2022-07-23T00:32:18;17.63;98.86
69162;DHT22;56269;51.738;21.652;2022-07-23T00:34:44;17.61;99.08
69162;DHT22;56269;51.738;21.652;2022-07-23T00:37:10;17.59;98.87
69162;DHT22;56269;51.738;21.652;2022-07-23T00:39:36;17.55;98.94
69162;DHT22;56269;51.738;21.652;2022-07-23T00:42:03;17.45;99.14
69162;DHT22;56269;51.738;21.652;2022-07-23T00:44:29;17.35;99.50
69162;DHT22;56269;51.738;21.652;2022-07-23T00:46:57;17.29;99.53
69162;DHT22;56269;51.738;21.652;2022-07-23T00:49:26;17.26;99.78
69162;DHT22;56269;51.738;21.652;2022-07-23T00:51:52;17.24;99.68
69162;DHT22;56269;51.738;21.652;2022-07-23T00:54:19;17.21;99.75
69162;DHT22;56269;51.738;21.652;2022-07-23T00:56:47;17.15;99.99
69162;DHT22;56269;51.738;21.652;2022-07-23T00:59:13;17.15;99.99
69162;DHT22;56269;51.738;21.652;2022-07-23T01:01:40;17.12;99.99
69162;DHT22;56269;51.738;21.652;2022-07-23T01:04:07;17.12;99.99
69162;DHT22;56269;51.738;21.652;2022-07-23T01:06:36;17.12;99.99
69162;DHT22;56269;51.738;21.652;2022-07-23T01:09:06;17.11;99.99
69162;DHT22;56269;51.738;21.652;2022-07-23T01:11:34;16.94;99.99
69162;DHT22;56269;51.738;21.652;2022-07-23T01:14:10;16.87;99.99
69162;DHT22;56269;51.738;21.652;2022-07-23T01:16:37;16.88;99.99
69162;DHT22;56269;51.738;21.652;2022-07-23T01:19:03;16.84;99.99
69162;DHT22;56269;51.738;21.652;2022-07-23T01:21:41;16.87;99.99
69162;DHT22;56269;51.738;21.652;2022-07-23T01:24:08;16.89;99.99
69162;DHT22;56269;51.738;21.652;2022-07-23T01:26:34;16.88;99.99
69162;DHT22;56269;51.738;21.652;2022-07-23T01:29:00;16.88;99.99
69162;DHT22;56269;51.738;21.652;2022-07-23T01:31:27;16.84;99.99
69162;DHT22;56269;51.738;21.652;2022-07-23T01:33:53;16.81;99.99
69162;DHT22;56269;51.738;21.652;2022-07-23T01:36:19;16.77;99.99
69162;DHT22;56269;51.738;21.652;2022-07-23T01:38:45;16.73;99.99
69162;DHT22;56269;51.738;21.652;2022-07-23T01:41:11;16.71;99.99
69162;DHT22;56269;51.738;21.652;2022-07-23T01:43:37;16.71;99.99
69162;DHT22;56269;51.738;21.652;2022-07-23T01:46:03;16.61;99.99
69162;DHT22;56269;51.738;21.652;2022-07-23T01:48:29;16.61;99.99
69162;DHT22;56269;51.738;21.652;2022-07-23T01:50:55;16.54;99.99
69162;DHT22;56269;51.738;21.652;2022-07-23T01:53:21;16.47;99.99
69162;DHT22;56269;51.738;21.652;2022-07-23T01:55:48;16.46;99.99
69162;DHT22;56269;51.738;21.652;2022-07-23T01:58:13;16.37;99.99
69162;DHT22;56269;51.738;21.652;2022-07-23T02:00:40;16.36;99.99
69162;DHT22;56269;51.738;21.652;2022-07-23T02:03:05;16.39;99.99
69162;DHT22;56269;51.738;21.652;2022-07-23T02:05:32;16.34;99.99
69162;DHT22;56269;51.738;21.652;2022-07-23T02:07:59;16.27;99.99
69162;DHT22;56269;51.738;21.652;2022-07-23T02:10:25;16.20;99.99
69162;DHT22;56269;51.738;21.652;2022-07-23T02:12:51;16.22;99.99
69162;DHT22;56269;51.738;21.652;2022-07-23T02:15:18;16.26;99.99
69162;DHT22;56269;51.738;21.652;2022-07-23T02:17:44;16.23;99.99
69162;DHT22;56269;51.738;21.652;2022-07-23T02:20:11;16.23;99.99
69162;DHT22;56269;51.738;21.652;2022-07-23T02:22:38;16.24;99.99
69162;DHT22;56269;51.738;21.652;2022-07-23T02:25:05;16.22;99.99
69162;DHT22;56269;51.738;21.652;2022-07-23T02:27:32;16.14;99.99
69162;DHT22;56269;51.738;21.652;2022-07-23T02:29:58;16.13;99.99
69162;DHT22;56269;51.738;21.652;2022-07-23T02:32:24;16.06;99.99
69162;DHT22;56269;51.738;21.652;2022-07-23T02:34:50;16.10;99.99
69162;DHT22;56269;51.738;21.652;2022-07-23T02:37:17;16.09;99.99
69162;DHT22;56269;51.738;21.652;2022-07-23T02:39:43;16.06;99.99
69162;DHT22;56269;51.738;21.652;2022-07-23T02:42:09;16.03;99.99
69162;DHT22;56269;51.738;21.652;2022-07-23T02:44:35;15.98;99.99
69162;DHT22;56269;51.738;21.652;2022-07-23T02:47:01;16.06;99.99
69162;DHT22;56269;51.738;21.652;2022-07-23T02:49:27;16.06;99.99
69162;DHT22;56269;51.738;21.652;2022-07-23T02:51:53;16.14;99.99
69162;DHT22;56269;51.738;21.652;2022-07-23T02:54:20;16.14;99.99
69162;DHT22;56269;51.738;21.652;2022-07-23T02:56:45;16.13;99.99
69162;DHT22;56269;51.738;21.652;2022-07-23T02:59:12;16.14;99.99
69162;DHT22;56269;51.738;21.652;2022-07-23T03:01:37;16.14;99.99
69162;DHT22;56269;51.738;21.652;2022-07-23T03:04:03;16.14;99.99
69162;DHT22;56269;51.738;21.652;2022-07-23T03:06:30;16.12;99.99
69162;DHT22;56269;51.738;21.652;2022-07-23T03:08:56;16.06;99.99
69162;DHT22;56269;51.738;21.652;2022-07-23T03:11:21;16.06;99.99
69162;DHT22;56269;51.738;21.652;2022-07-23T03:13:48;16.06;99.99
69162;DHT22;56269;51.738;21.652;2022-07-23T03:16:13;16.06;99.99
69162;DHT22;56269;51.738;21.652;2022-07-23T03:18:39;16.17;99.99
69162;DHT22;56269;51.738;21.652;2022-07-23T03:21:05;16.17;99.99
69162;DHT22;56269;51.738;21.652;2022-07-23T03:23:31;16.22;99.99
69162;DHT22;56269;51.738;21.652;2022-07-23T03:25:57;16.33;99.99
69162;DHT22;56269;51.738;21.652;2022-07-23T03:28:23;16.40;99.99
69162;DHT22;56269;51.738;21.652;2022-07-23T03:30:49;16.42;99.99
69162;DHT22;56269;51.738;21.652;2022-07-23T03:33:17;16.44;99.99
69162;DHT22;56269;51.738;21.652;2022-07-23T03:35:44;16.50;99.99
69162;DHT22;56269;51.738;21.652;2022-07-23T03:38:10;16.56;99.99
69162;DHT22;56269;51.738;21.652;2022-07-23T03:40:36;16.70;99.99
69162;DHT22;56269;51.738;21.652;2022-07-23T03:43:03;16.74;99.99
69162;DHT22;56269;51.738;21.652;2022-07-23T03:45:29;16.78;99.99
69162;DHT22;56269;51.738;21.652;2022-07-23T03:47:55;17.11;99.77
69162;DHT22;56269;51.738;21.652;2022-07-23T03:50:21;17.39;98.30
69162;DHT22;56269;51.738;21.652;2022-07-23T03:52:48;17.65;97.38
69162;DHT22;56269;51.738;21.652;2022-07-23T03:55:14;18.00;96.82
69162;DHT22;56269;51.738;21.652;2022-07-23T03:57:40;18.26;96.02
69162;DHT22;56269;51.738;21.652;2022-07-23T04:00:07;18.28;95.01
69162;DHT22;56269;51.738;21.652;2022-07-23T04:02:37;18.27;95.09
69162;DHT22;56269;51.738;21.652;2022-07-23T04:05:04;18.24;94.69
69162;DHT22;56269;51.738;21.652;2022-07-23T04:07:30;18.23;95.36
69162;DHT22;56269;51.738;21.652;2022-07-23T04:09:56;18.26;97.36
69162;DHT22;56269;51.738;21.652;2022-07-23T04:12:23;18.43;97.49
69162;DHT22;56269;51.738;21.652;2022-07-23T04:14:50;18.54;97.01
69162;DHT22;56269;51.738;21.652;2022-07-23T04:17:16;18.78;95.19
69162;DHT22;56269;51.738;21.652;2022-07-23T04:19:42;18.96;94.93
69162;DHT22;56269;51.738;21.652;2022-07-23T04:22:12;19.30;94.55
69162;DHT22;56269;51.738;21.652;2022-07-23T04:24:38;19.66;92.77
69162;DHT22;56269;51.738;21.652;2022-07-23T04:27:05;20.12;92.86
69162;DHT22;56269;51.738;21.652;2022-07-23T04:29:31;20.68;91.03
69162;DHT22;56269;51.738;21.652;2022-07-23T04:31:57;21.23;89.55
69162;DHT22;56269;51.738;21.652;2022-07-23T04:34:23;21.38;86.53
69162;DHT22;56269;51.738;21.652;2022-07-23T04:36:52;21.64;87.94
69162;DHT22;56269;51.738;21.652;2022-07-23T04:39:19;21.72;87.32
69162;DHT22;56269;51.738;21.652;2022-07-23T04:41:45;21.71;86.14
69162;DHT22;56269;51.738;21.652;2022-07-23T04:44:11;21.99;86.40
69162;DHT22;56269;51.738;21.652;2022-07-23T04:46:37;22.10;85.77
69162;DHT22;56269;51.738;21.652;2022-07-23T04:49:04;22.09;84.96
69162;DHT22;56269;51.738;21.652;2022-07-23T04:51:30;22.28;85.05
69162;DHT22;56269;51.738;21.652;2022-07-23T04:53:56;22.59;84.25
69162;DHT22;56269;51.738;21.652;2022-07-23T04:56:22;22.93;85.51
69162;DHT22;56269;51.738;21.652;2022-07-23T04:58:48;23.05;83.66
69162;DHT22;56269;51.738;21.652;2022-07-23T05:01:14;23.35;83.68
69162;DHT22;56269;51.738;21.652;2022-07-23T05:03:40;23.70;83.25
69162;DHT22;56269;51.738;21.652;2022-07-23T05:06:06;23.97;82.72
69162;DHT22;56269;51.738;21.652;2022-07-23T05:08:32;24.37;81.11
69162;DHT22;56269;51.738;21.652;2022-07-23T05:10:58;24.54;79.26
69162;DHT22;56269;51.738;21.652;2022-07-23T05:13:24;24.92;77.35
69162;DHT22;56269;51.738;21.652;2022-07-23T05:15:50;24.99;75.85
69162;DHT22;56269;51.738;21.652;2022-07-23T05:18:16;25.07;76.70
69162;DHT22;56269;51.738;21.652;2022-07-23T05:20:42;25.26;76.54
69162;DHT22;56269;51.738;21.652;2022-07-23T05:23:08;25.45;77.42
69162;DHT22;56269;51.738;21.652;2022-07-23T05:25:36;25.81;77.60
69162;DHT22;56269;51.738;21.652;2022-07-23T05:28:02;26.40;75.28
69162;DHT22;56269;51.738;21.652;2022-07-23T05:30:28;26.41;74.07
69162;DHT22;56269;51.738;21.652;2022-07-23T05:32:54;26.88;75.12
69162;DHT22;56269;51.738;21.652;2022-07-23T05:35:20;26.88;72.53
69162;DHT22;56269;51.738;21.652;2022-07-23T05:37:46;27.41;71.69
69162;DHT22;56269;51.738;21.652;2022-07-23T05:40:12;27.39;69.67
69162;DHT22;56269;51.738;21.652;2022-07-23T05:42:39;27.58;67.40
69162;DHT22;56269;51.738;21.652;2022-07-23T05:45:07;27.82;66.43
69162;DHT22;56269;51.738;21.652;2022-07-23T05:47:44;28.22;66.38
69162;DHT22;56269;51.738;21.652;2022-07-23T05:50:12;28.28;67.18
69162;DHT22;56269;51.738;21.652;2022-07-23T05:52:38;28.56;65.14
69162;DHT22;56269;51.738;21.652;2022-07-23T05:55:05;28.80;65.46
69162;DHT22;56269;51.738;21.652;2022-07-23T05:57:31;28.90;64.08
69162;DHT22;56269;51.738;21.652;2022-07-23T05:59:57;28.83;63.58
69162;DHT22;56269;51.738;21.652;2022-07-23T06:02:23;28.80;65.10
69162;DHT22;56269;51.738;21.652;2022-07-23T06:04:49;28.99;66.47
69162;DHT22;56269;51.738;21.652;2022-07-23T06:07:15;29.25;63.61
69162;DHT22;56269;51.738;21.652;2022-07-23T06:09:41;29.24;64.10
69162;DHT22;56269;51.738;21.652;2022-07-23T06:12:07;29.38;64.55
69162;DHT22;56269;51.738;21.652;2022-07-23T06:14:34;29.55;63.42
69162;DHT22;56269;51.738;21.652;2022-07-23T06:17:00;29.64;63.26
69162;DHT22;56269;51.738;21.652;2022-07-23T06:19:26;29.35;62.95
69162;DHT22;56269;51.738;21.652;2022-07-23T06:21:52;29.07;63.67
69162;DHT22;56269;51.738;21.652;2022-07-23T06:24:18;28.93;63.82
69162;DHT22;56269;51.738;21.652;2022-07-23T06:26:44;29.00;64.94
69162;DHT22;56269;51.738;21.652;2022-07-23T06:29:10;29.17;65.66
69162;DHT22;56269;51.738;21.652;2022-07-23T06:31:36;29.21;64.66
69162;DHT22;56269;51.738;21.652;2022-07-23T06:34:02;29.37;63.81
69162;DHT22;56269;51.738;21.652;2022-07-23T06:36:29;29.53;63.81
69162;DHT22;56269;51.738;21.652;2022-07-23T06:38:55;29.82;62.86
69162;DHT22;56269;51.738;21.652;2022-07-23T06:41:21;29.65;61.04
69162;DHT22;56269;51.738;21.652;2022-07-23T06:43:48;29.78;62.86
69162;DHT22;56269;51.738;21.652;2022-07-23T06:46:14;29.86;61.62
69162;DHT22;56269;51.738;21.652;2022-07-23T06:48:40;30.12;62.30
69162;DHT22;56269;51.738;21.652;2022-07-23T06:51:06;30.43;62.24
69162;DHT22;56269;51.738;21.652;2022-07-23T06:53:32;30.63;60.43
69162;DHT22;56269;51.738;21.652;2022-07-23T06:55:58;30.61;59.51
69162;DHT22;56269;51.738;21.652;2022-07-23T06:58:24;30.80;58.51
69162;DHT22;56269;51.738;21.652;2022-07-23T07:00:50;30.77;57.91
69162;DHT22;56269;51.738;21.652;2022-07-23T07:03:18;30.59;57.59
69162;DHT22;56269;51.738;21.652;2022-07-23T07:05:44;30.73;57.57
69162;DHT22;56269;51.738;21.652;2022-07-23T07:08:11;30.76;60.51
69162;DHT22;56269;51.738;21.652;2022-07-23T07:10:37;31.06;57.46
69162;DHT22;56269;51.738;21.652;2022-07-23T07:13:03;30.92;60.14
69162;DHT22;56269;51.738;21.652;2022-07-23T07:15:29;30.52;57.86
69162;DHT22;56269;51.738;21.652;2022-07-23T07:17:55;30.64;58.64
69162;DHT22;56269;51.738;21.652;2022-07-23T07:20:21;30.97;58.94
69162;DHT22;56269;51.738;21.652;2022-07-23T07:22:47;30.97;57.37
69162;DHT22;56269;51.738;21.652;2022-07-23T07:25:13;31.58;56.80
69162;DHT22;56269;51.738;21.652;2022-07-23T07:27:40;31.80;55.96
69162;DHT22;56269;51.738;21.652;2022-07-23T07:30:07;31.76;55.40
69162;DHT22;56269;51.738;21.652;2022-07-23T07:32:33;31.80;54.51
69162;DHT22;56269;51.738;21.652;2022-07-23T07:34:59;32.12;53.99
69162;DHT22;56269;51.738;21.652;2022-07-23T07:37:25;31.82;54.38
69162;DHT22;56269;51.738;21.652;2022-07-23T07:39:51;31.34;56.50
69162;DHT22;56269;51.738;21.652;2022-07-23T07:42:17;31.46;53.43
69162;DHT22;56269;51.738;21.652;2022-07-23T07:44:43;31.52;54.76
69162;DHT22;56269;51.738;21.652;2022-07-23T07:47:09;31.45;54.04
69162;DHT22;56269;51.738;21.652;2022-07-23T07:49:35;31.49;54.69
69162;DHT22;56269;51.738;21.652;2022-07-23T07:52:01;31.89;52.48
69162;DHT22;56269;51.738;21.652;2022-07-23T07:54:27;32.19;51.53
69162;DHT22;56269;51.738;21.652;2022-07-23T07:56:53;31.69;50.67
69162;DHT22;56269;51.738;21.652;2022-07-23T07:59:19;31.41;52.30
69162;DHT22;56269;51.738;21.652;2022-07-23T08:01:45;31.57;50.92
69162;DHT22;56269;51.738;21.652;2022-07-23T08:04:11;31.99;51.65
69162;DHT22;56269;51.738;21.652;2022-07-23T08:06:37;31.86;54.25
69162;DHT22;56269;51.738;21.652;2022-07-23T08:09:03;32.00;53.16
69162;DHT22;56269;51.738;21.652;2022-07-23T08:11:30;32.20;50.78
69162;DHT22;56269;51.738;21.652;2022-07-23T08:13:56;32.50;49.76
69162;DHT22;56269;51.738;21.652;2022-07-23T08:16:21;33.02;48.49
69162;DHT22;56269;51.738;21.652;2022-07-23T08:18:48;33.19;50.68
69162;DHT22;56269;51.738;21.652;2022-07-23T08:21:14;33.18;49.01
69162;DHT22;56269;51.738;21.652;2022-07-23T08:23:40;33.14;46.75
69162;DHT22;56269;51.738;21.652;2022-07-23T08:26:06;33.77;48.68
69162;DHT22;56269;51.738;21.652;2022-07-23T08:28:32;33.39;48.41
69162;DHT22;56269;51.738;21.652;2022-07-23T08:30:59;33.09;46.66
69162;DHT22;56269;51.738;21.652;2022-07-23T08:33:25;33.42;46.18
69162;DHT22;56269;51.738;21.652;2022-07-23T08:35:51;33.22;45.85
69162;DHT22;56269;51.738;21.652;2022-07-23T08:38:20;33.12;46.25
69162;DHT22;56269;51.738;21.652;2022-07-23T08:40:51;33.30;47.79
69162;DHT22;56269;51.738;21.652;2022-07-23T08:43:29;33.59;46.61
69162;DHT22;56269;51.738;21.652;2022-07-23T08:45:57;34.20;46.64
69162;DHT22;56269;51.738;21.652;2022-07-23T08:48:32;33.62;43.48
69162;DHT22;56269;51.738;21.652;2022-07-23T08:51:00;33.52;45.71
69162;DHT22;56269;51.738;21.652;2022-07-23T08:53:28;33.50;48.56
69162;DHT22;56269;51.738;21.652;2022-07-23T08:55:57;33.55;46.47
69162;DHT22;56269;51.738;21.652;2022-07-23T08:58:24;33.73;42.97
69162;DHT22;56269;51.738;21.652;2022-07-23T09:00:50;33.81;44.41
69162;DHT22;56269;51.738;21.652;2022-07-23T09:03:24;34.30;44.88
69162;DHT22;56269;51.738;21.652;2022-07-23T09:05:53;34.21;42.17
69162;DHT22;56269;51.738;21.652;2022-07-23T09:08:21;34.24;42.40
69162;DHT22;56269;51.738;21.652;2022-07-23T09:10:55;34.74;44.16
69162;DHT22;56269;51.738;21.652;2022-07-23T09:13:24;34.36;40.30
69162;DHT22;56269;51.738;21.652;2022-07-23T09:15:51;34.41;40.70
69162;DHT22;56269;51.738;21.652;2022-07-23T09:18:17;33.81;39.46
69162;DHT22;56269;51.738;21.652;2022-07-23T09:20:44;33.94;42.38
69162;DHT22;56269;51.738;21.652;2022-07-23T09:23:13;34.17;39.29
69162;DHT22;56269;51.738;21.652;2022-07-23T09:25:39;34.65;39.68
69162;DHT22;56269;51.738;21.652;2022-07-23T09:28:05;35.33;40.36
69162;DHT22;56269;51.738;21.652;2022-07-23T09:30:33;35.12;39.70
69162;DHT22;56269;51.738;21.652;2022-07-23T09:35:53;34.70;39.00
69162;DHT22;56269;51.738;21.652;2022-07-23T09:38:22;35.25;38.48
69162;DHT22;56269;51.738;21.652;2022-07-23T09:41:09;34.03;38.07
69162;DHT22;56269;51.738;21.652;2022-07-23T09:43:36;33.52;38.97
69162;DHT22;56269;51.738;21.652;2022-07-23T09:46:25;33.38;38.45
69162;DHT22;56269;51.738;21.652;2022-07-23T09:48:55;33.88;39.84
69162;DHT22;56269;51.738;21.652;2022-07-23T09:51:23;33.74;41.27
69162;DHT22;56269;51.738;21.652;2022-07-23T09:54:02;33.45;40.46
69162;DHT22;56269;51.738;21.652;2022-07-23T09:56:28;33.21;39.21
69162;DHT22;56269;51.738;21.652;2022-07-23T09:58:55;33.43;38.04
69162;DHT22;56269;51.738;21.652;2022-07-23T10:01:38;34.20;37.01
69162;DHT22;56269;51.738;21.652;2022-07-23T10:04:05;34.27;38.32
69162;DHT22;56269;51.738;21.652;2022-07-23T10:06:33;34.27;38.69
69162;DHT22;56269;51.738;21.652;2022-07-23T10:08:59;34.54;42.88
69162;DHT22;56269;51.738;21.652;2022-07-23T10:11:28;34.34;38.39
69162;DHT22;56269;51.738;21.652;2022-07-23T10:13:56;33.85;40.74
69162;DHT22;56269;51.738;21.652;2022-07-23T10:16:27;32.97;38.53
69162;DHT22;56269;51.738;21.652;2022-07-23T10:18:54;34.10;38.29
69162;DHT22;56269;51.738;21.652;2022-07-23T10:21:44;34.23;40.11
69162;DHT22;56269;51.738;21.652;2022-07-23T10:29:31;35.19;37.01
69162;DHT22;56269;51.738;21.652;2022-07-23T10:32:26;35.02;37.91
69162;DHT22;56269;51.738;21.652;2022-07-23T10:37:49;33.69;36.78
69162;DHT22;56269;51.738;21.652;2022-07-23T10:42:44;33.21;40.28
69162;DHT22;56269;51.738;21.652;2022-07-23T10:45:32;33.04;39.36
69162;DHT22;56269;51.738;21.652;2022-07-23T10:51:12;35.22;37.19
69162;DHT22;56269;51.738;21.652;2022-07-23T10:59:24;34.51;39.98
69162;DHT22;56269;51.738;21.652;2022-07-23T11:01:50;34.78;39.70
69162;DHT22;56269;51.738;21.652;2022-07-23T11:04:16;34.89;38.98
69162;DHT22;56269;51.738;21.652;2022-07-23T11:09:25;35.19;38.36
69162;DHT22;56269;51.738;21.652;2022-07-23T11:15:07;33.43;38.70
69162;DHT22;56269;51.738;21.652;2022-07-23T11:20:22;33.97;35.00
69162;DHT22;56269;51.738;21.652;2022-07-23T11:22:56;34.37;39.26
69162;DHT22;56269;51.738;21.652;2022-07-23T11:27:50;33.94;36.69
69162;DHT22;56269;51.738;21.652;2022-07-23T11:32:52;35.09;39.76
69162;DHT22;56269;51.738;21.652;2022-07-23T11:35:20;35.32;36.98
69162;DHT22;56269;51.738;21.652;2022-07-23T11:37:47;35.32;38.55
69162;DHT22;56269;51.738;21.652;2022-07-23T11:40:16;34.41;38.89
69162;DHT22;56269;51.738;21.652;2022-07-23T11:45:19;33.65;39.91
69162;DHT22;56269;51.738;21.652;2022-07-23T11:47:45;33.79;40.86
69162;DHT22;56269;51.738;21.652;2022-07-23T11:50:10;33.70;39.53
69162;DHT22;56269;51.738;21.652;2022-07-23T11:52:38;34.06;38.68
69162;DHT22;56269;51.738;21.652;2022-07-23T11:55:07;34.19;39.09
69162;DHT22;56269;51.738;21.652;2022-07-23T11:57:40;33.90;37.47
69162;DHT22;56269;51.738;21.652;2022-07-23T12:02:41;32.37;40.95
69162;DHT22;56269;51.738;21.652;2022-07-23T12:05:12;33.22;40.18
69162;DHT22;56269;51.738;21.652;2022-07-23T12:07:46;33.32;39.38
69162;DHT22;56269;51.738;21.652;2022-07-23T12:10:41;33.63;39.00
69162;DHT22;56269;51.738;21.652;2022-07-23T12:13:09;33.88;41.58
69162;DHT22;56269;51.738;21.652;2022-07-23T12:15:44;33.85;38.87
69162;DHT22;56269;51.738;21.652;2022-07-23T12:18:13;33.83;38.70
69162;DHT22;56269;51.738;21.652;2022-07-23T12:20:45;34.58;36.60
69162;DHT22;56269;51.738;21.652;2022-07-23T12:23:13;33.90;37.43
69162;DHT22;56269;51.738;21.652;2022-07-23T12:25:44;34.91;37.14
69162;DHT22;56269;51.738;21.652;2022-07-23T12:28:13;33.65;40.73
69162;DHT22;56269;51.738;21.652;2022-07-23T12:30:43;33.02;43.58
69162;DHT22;56269;51.738;21.652;2022-07-23T12:33:24;32.71;45.02
69162;DHT22;56269;51.738;21.652;2022-07-23T12:35:54;31.96;43.77
69162;DHT22;56269;51.738;21.652;2022-07-23T12:38:21;31.66;46.20
69162;DHT22;56269;51.738;21.652;2022-07-23T12:40:56;32.36;42.72
69162;DHT22;56269;51.738;21.652;2022-07-23T12:43:31;32.26;43.36
69162;DHT22;56269;51.738;21.652;2022-07-23T12:48:34;32.26;38.84
69162;DHT22;56269;51.738;21.652;2022-07-23T12:51:27;33.21;41.84
69162;DHT22;56269;51.738;21.652;2022-07-23T12:53:57;33.74;37.46
69162;DHT22;56269;51.738;21.652;2022-07-23T12:56:31;33.99;42.66
69162;DHT22;56269;51.738;21.652;2022-07-23T12:59:08;34.17;40.32
69162;DHT22;56269;51.738;21.652;2022-07-23T13:01:38;33.70;41.85
69162;DHT22;56269;51.738;21.652;2022-07-23T13:04:13;33.14;40.16
69162;DHT22;56269;51.738;21.652;2022-07-23T13:06:45;32.91;42.95
69162;DHT22;56269;51.738;21.652;2022-07-23T13:09:18;32.89;41.81
69162;DHT22;56269;51.738;21.652;2022-07-23T13:11:45;33.55;39.74
69162;DHT22;56269;51.738;21.652;2022-07-23T13:14:12;34.16;40.10
69162;DHT22;56269;51.738;21.652;2022-07-23T13:16:39;34.45;39.42
69162;DHT22;56269;51.738;21.652;2022-07-23T13:19:06;33.69;37.83
69162;DHT22;56269;51.738;21.652;2022-07-23T13:21:32;33.39;37.75
69162;DHT22;56269;51.738;21.652;2022-07-23T13:23:59;34.39;40.04
69162;DHT22;56269;51.738;21.652;2022-07-23T13:26:25;33.53;37.51
69162;DHT22;56269;51.738;21.652;2022-07-23T13:28:52;33.01;40.48
69162;DHT22;56269;51.738;21.652;2022-07-23T13:31:18;33.33;41.16
69162;DHT22;56269;51.738;21.652;2022-07-23T13:33:45;32.72;43.16
69162;DHT22;56269;51.738;21.652;2022-07-23T13:36:11;32.40;39.52
69162;DHT22;56269;51.738;21.652;2022-07-23T13:38:37;32.88;38.88
69162;DHT22;56269;51.738;21.652;2022-07-23T13:41:05;33.77;38.43
69162;DHT22;56269;51.738;21.652;2022-07-23T13:43:32;34.71;42.34
69162;DHT22;56269;51.738;21.652;2022-07-23T13:45:59;35.53;38.42
69162;DHT22;56269;51.738;21.652;2022-07-23T13:48:25;34.80;37.77
69162;DHT22;56269;51.738;21.652;2022-07-23T13:50:51;34.47;38.61
69162;DHT22;56269;51.738;21.652;2022-07-23T13:53:21;34.61;40.62
69162;DHT22;56269;51.738;21.652;2022-07-23T13:55:51;33.72;41.30
69162;DHT22;56269;51.738;21.652;2022-07-23T13:58:18;33.15;38.23
69162;DHT22;56269;51.738;21.652;2022-07-23T14:00:49;33.15;40.88
69162;DHT22;56269;51.738;21.652;2022-07-23T14:03:16;32.40;39.68
69162;DHT22;56269;51.738;21.652;2022-07-23T14:05:43;32.29;43.20
69162;DHT22;56269;51.738;21.652;2022-07-23T14:08:09;32.13;43.18
69162;DHT22;56269;51.738;21.652;2022-07-23T14:10:36;32.67;47.26
69162;DHT22;56269;51.738;21.652;2022-07-23T14:13:02;32.72;46.84
69162;DHT22;56269;51.738;21.652;2022-07-23T14:15:30;33.09;41.27
69162;DHT22;56269;51.738;21.652;2022-07-23T14:17:57;34.23;38.04
69162;DHT22;56269;51.738;21.652;2022-07-23T14:20:23;34.92;36.00
69162;DHT22;56269;51.738;21.652;2022-07-23T14:22:51;35.39;41.16
69162;DHT22;56269;51.738;21.652;2022-07-23T14:25:18;35.62;41.21
69162;DHT22;56269;51.738;21.652;2022-07-23T14:27:45;35.79;39.62
69162;DHT22;56269;51.738;21.652;2022-07-23T14:30:12;34.82;37.71
69162;DHT22;56269;51.738;21.652;2022-07-23T14:32:38;34.72;37.06
69162;DHT22;56269;51.738;21.652;2022-07-23T14:35:05;34.51;40.92
69162;DHT22;56269;51.738;21.652;2022-07-23T14:37:32;34.31;42.70
69162;DHT22;56269;51.738;21.652;2022-07-23T14:39:58;33.53;42.18
69162;DHT22;56269;51.738;21.652;2022-07-23T14:42:25;32.54;43.03
69162;DHT22;56269;51.738;21.652;2022-07-23T14:44:51;31.94;43.44
69162;DHT22;56269;51.738;21.652;2022-07-23T14:47:17;31.89;44.61
69162;DHT22;56269;51.738;21.652;2022-07-23T14:49:43;31.62;45.21
69162;DHT22;56269;51.738;21.652;2022-07-23T14:52:10;31.18;48.71
69162;DHT22;56269;51.738;21.652;2022-07-23T14:54:35;31.24;52.90
69162;DHT22;56269;51.738;21.652;2022-07-23T14:57:03;31.29;50.66
69162;DHT22;56269;51.738;21.652;2022-07-23T14:59:30;30.95;54.06
69162;DHT22;56269;51.738;21.652;2022-07-23T15:01:57;30.87;49.53
69162;DHT22;56269;51.738;21.652;2022-07-23T15:04:25;30.61;48.06
69162;DHT22;56269;51.738;21.652;2022-07-23T15:06:52;30.32;51.88
69162;DHT22;56269;51.738;21.652;2022-07-23T15:09:18;30.08;52.53
69162;DHT22;56269;51.738;21.652;2022-07-23T15:11:46;29.69;54.03
69162;DHT22;56269;51.738;21.652;2022-07-23T15:14:13;29.34;55.89
69162;DHT22;56269;51.738;21.652;2022-07-23T15:16:39;28.94;61.75
69162;DHT22;56269;51.738;21.652;2022-07-23T15:19:06;28.70;56.97
69162;DHT22;56269;51.738;21.652;2022-07-23T15:21:33;28.52;55.65
69162;DHT22;56269;51.738;21.652;2022-07-23T15:23:58;28.39;60.26
69162;DHT22;56269;51.738;21.652;2022-07-23T15:26:28;28.22;62.02
69162;DHT22;56269;51.738;21.652;2022-07-23T15:28:56;28.09;62.18
69162;DHT22;56269;51.738;21.652;2022-07-23T15:31:22;27.91;63.19
69162;DHT22;56269;51.738;21.652;2022-07-23T15:33:49;27.84;59.07
69162;DHT22;56269;51.738;21.652;2022-07-23T15:36:17;27.67;66.49
69162;DHT22;56269;51.738;21.652;2022-07-23T15:38:44;27.70;63.77
69162;DHT22;56269;51.738;21.652;2022-07-23T15:41:10;27.77;63.45
69162;DHT22;56269;51.738;21.652;2022-07-23T15:43:37;27.65;65.44
69162;DHT22;56269;51.738;21.652;2022-07-23T15:46:04;27.67;66.00
69162;DHT22;56269;51.738;21.652;2022-07-23T15:48:30;27.65;66.43
69162;DHT22;56269;51.738;21.652;2022-07-23T15:50:56;27.76;65.72
69162;DHT22;56269;51.738;21.652;2022-07-23T15:53:22;27.36;59.36
69162;DHT22;56269;51.738;21.652;2022-07-23T15:55:48;26.21;63.10
69162;DHT22;56269;51.738;21.652;2022-07-23T15:58:14;25.51;65.36
69162;DHT22;56269;51.738;21.652;2022-07-23T16:00:40;25.16;66.97